Time;durP1;ratioP1;P1;durP2;ratioP2;P2;SDS_P1;SDS_P2;PMS_P1;PMS_P2;Temp;Humidity;BMP_temperature;BMP_pressure;BME280_temperature;BME280_humidity;BME280_pressure;Samples;Min_cycle;Max_cycle;Signal;HPM_P1;HPM_P2
2023/06/21 00:03:13;;;;;;;45.40;28.13;;;19.30;99.90;;;;;;20412444;28;20050;-41
2023/06/21 00:13:35;;;;;;;41.72;27.33;;;19.20;99.90;;;;;;20409915;28;20070;-41
2023/06/21 00:23:56;;;;;;;39.60;26.80;;;19.20;99.90;;;;;;20415308;28;20566;-41
2023/06/21 00:34:17;;;;;;;43.05;27.55;;;19.20;99.90;;;;;;20410229;28;20043;-41
2023/06/21 00:44:39;;;;;;;38.17;25.15;;;19.10;99.90;;;;;;20413204;28;20073;-42
2023/06/21 00:55:00;;;;;;;39.50;27.10;;;19.10;99.90;;;;;;20414981;28;20117;-41
2023/06/21 01:05:25;;;;;;;35.08;25.00;;;19.00;99.90;;;;;;20407021;28;20039;-42
2023/06/21 01:15:50;;;;;;;38.80;26.70;;;18.90;99.90;;;;;;20405767;28;20079;-42
2023/06/21 01:26:42;;;;;;;37.67;25.75;;;18.90;99.90;;;;;;20411278;28;20047;-41
2023/06/21 01:37:06;;;;;;;40.17;25.88;;;18.90;99.90;;;;;;20412825;28;20042;-41
2023/06/21 01:47:28;;;;;;;42.45;25.90;;;18.80;99.90;;;;;;20411701;28;20408;-42
2023/06/21 01:57:51;;;;;;;43.58;27.83;;;18.70;99.90;;;;;;20403265;28;20047;-41
2023/06/21 02:08:16;;;;;;;50.85;30.92;;;18.70;99.90;;;;;;20411008;28;20081;-42
2023/06/21 02:18:37;;;;;;;47.90;29.10;;;18.70;99.90;;;;;;20417132;28;20444;-42
2023/06/21 02:28:58;;;;;;;48.78;29.75;;;18.70;99.90;;;;;;20412287;28;20070;-41
2023/06/21 02:39:21;;;;;;;50.80;30.45;;;18.60;99.90;;;;;;20420703;28;20031;-42
2023/06/21 02:49:43;;;;;;;50.58;29.88;;;18.50;99.90;;;;;;20423402;29;20054;-41
2023/06/21 03:00:19;;;;;;;48.13;28.48;;;18.50;99.90;;;;;;20419648;28;20073;-42
2023/06/21 03:10:40;;;;;;;47.58;28.40;;;18.50;99.90;;;;;;20425769;28;20502;-41
2023/06/21 03:21:02;;;;;;;45.85;28.55;;;18.40;99.90;;;;;;20416122;28;20039;-42
2023/06/21 03:31:23;;;;;;;51.05;27.77;;;18.40;99.90;;;;;;20411932;28;20070;-42
2023/06/21 03:41:45;;;;;;;52.75;29.75;;;18.30;99.90;;;;;;20409443;29;20122;-43
2023/06/21 03:52:06;;;;;;;52.53;29.02;;;18.30;99.90;;;;;;20420671;28;20059;-47
2023/06/21 04:02:29;;;;;;;52.20;27.73;;;18.30;99.90;;;;;;20413840;28;20066;-42
2023/06/21 04:12:50;;;;;;;56.92;30.83;;;18.30;99.90;;;;;;20415424;28;20091;-42
2023/06/21 04:23:11;;;;;;;52.03;28.48;;;18.40;99.90;;;;;;20416250;28;20811;-42
2023/06/21 04:33:34;;;;;;;46.38;26.50;;;18.40;99.90;;;;;;20413089;28;20031;-43
2023/06/21 04:43:55;;;;;;;47.67;26.35;;;18.40;99.90;;;;;;20391037;28;20071;-41
2023/06/21 04:54:17;;;;;;;44.28;25.05;;;18.50;99.90;;;;;;20426676;28;20049;-42
2023/06/21 05:04:38;;;;;;;35.42;21.30;;;18.70;99.90;;;;;;20419011;28;20035;-42
2023/06/21 05:15:00;;;;;;;27.13;16.33;;;18.70;99.90;;;;;;20429743;28;20047;-42
2023/06/21 05:25:21;;;;;;;16.90;9.55;;;18.60;99.90;;;;;;20422387;28;20043;-43
2023/06/21 05:35:43;;;;;;;9.23;5.72;;;18.70;99.90;;;;;;20421492;28;20594;-41
2023/06/21 05:46:04;;;;;;;6.93;4.75;;;18.70;99.90;;;;;;20402922;28;20062;-42
2023/06/21 05:56:27;;;;;;;7.85;4.78;;;18.80;99.90;;;;;;20431399;28;20046;-41
2023/06/21 06:06:48;;;;;;;9.45;5.55;;;18.70;99.90;;;;;;20424019;28;20082;-41
2023/06/21 06:17:09;;;;;;;11.00;5.70;;;18.70;99.90;;;;;;20427634;28;20051;-41
2023/06/21 06:27:31;;;;;;;11.63;6.47;;;18.60;99.90;;;;;;20422209;29;20063;-42
2023/06/21 06:37:52;;;;;;;10.30;6.40;;;18.70;99.90;;;;;;20425876;28;20780;-42
2023/06/21 06:48:13;;;;;;;10.80;6.40;;;18.90;99.90;;;;;;20432532;29;20085;-41
2023/06/21 06:58:35;;;;;;;12.77;8.00;;;19.20;99.90;;;;;;20407487;28;20077;-42
2023/06/21 07:08:56;;;;;;;11.60;7.95;;;19.30;99.90;;;;;;20430912;28;20058;-41
2023/06/21 07:19:18;;;;;;;8.57;4.38;;;19.40;99.90;;;;;;20428077;29;20407;-42
2023/06/21 07:29:39;;;;;;;6.60;3.25;;;19.50;83.50;;;;;;20432059;28;20051;-42
2023/06/21 07:40:00;;;;;;;5.05;2.92;;;19.60;51.20;;;;;;20440999;29;20130;-43
2023/06/21 07:50:25;;;;;;;7.32;4.22;;;19.80;51.80;;;;;;20414934;28;20043;-41
2023/06/21 08:00:46;;;;;;;10.60;6.15;;;19.90;62.30;;;;;;20429140;28;20385;-42
2023/06/21 08:11:08;;;;;;;8.40;4.03;;;20.00;67.20;;;;;;20417432;28;20064;-42
2023/06/21 08:21:30;;;;;;;3.95;2.47;;;20.10;17.00;;;;;;20427683;28;20062;-41
2023/06/21 08:31:51;;;;;;;5.95;2.28;;;20.60;1.00;;;;;;20422936;29;20043;-42
2023/06/21 08:42:12;;;;;;;5.25;2.22;;;21.00;1.00;;;;;;20418541;28;20035;-42
2023/06/21 08:52:35;;;;;;;3.78;2.20;;;21.30;1.00;;;;;;20412436;28;20537;-42
2023/06/21 09:03:07;;;;;;;10.20;2.50;;;21.60;1.00;;;;;;20415754;28;20618;-42
2023/06/21 09:13:31;;;;;;;3.28;1.77;;;21.80;1.00;;;;;;20419829;28;20051;-43
2023/06/21 09:23:53;;;;;;;5.65;1.92;;;22.00;1.00;;;;;;20410333;28;20071;-43
2023/06/21 09:34:14;;;;;;;5.47;1.88;;;22.10;1.00;;;;;;20418772;29;20050;-42
2023/06/21 09:44:37;;;;;;;2.30;1.25;;;22.50;1.00;;;;;;20418512;28;20054;-43
2023/06/21 09:54:59;;;;;;;3.22;1.65;;;22.80;1.00;;;;;;20417710;29;20086;-42
2023/06/21 10:05:20;;;;;;;3.00;1.40;;;23.20;1.00;;;;;;20439496;28;20047;-44
2023/06/21 10:15:46;;;;;;;2.72;1.25;;;23.60;1.00;;;;;;20435762;28;20121;-44
2023/06/21 10:26:12;;;;;;;3.55;1.65;;;23.70;1.00;;;;;;20422097;29;20051;-43
2023/06/21 10:36:38;;;;;;;3.97;1.63;;;23.90;1.00;;;;;;20446113;28;20431;-41
2023/06/21 10:47:00;;;;;;;4.43;1.17;;;24.00;1.00;;;;;;20432036;29;20106;-43
2023/06/21 10:57:24;;;;;;;4.57;2.05;;;24.30;1.00;;;;;;20432183;28;20051;-41
2023/06/21 11:08:05;;;;;;;3.25;1.20;;;24.70;1.00;;;;;;20441491;28;20182;-41
2023/06/21 11:18:27;;;;;;;3.08;1.15;;;24.90;1.00;;;;;;20433504;29;20058;-41
2023/06/21 11:28:49;;;;;;;4.47;2.53;;;25.20;1.00;;;;;;20438863;28;20047;-41
2023/06/21 11:39:10;;;;;;;4.00;1.70;;;25.20;1.00;;;;;;20437209;28;20083;-41
2023/06/21 11:49:33;;;;;;;3.40;1.40;;;24.60;1.00;;;;;;20434471;28;20067;-41
2023/06/21 11:59:55;;;;;;;4.80;2.50;;;24.30;1.00;;;;;;20434769;28;20550;-41
2023/06/21 12:10:16;;;;;;;8.85;4.78;;;24.30;1.00;;;;;;20431253;29;20487;-41
2023/06/21 12:20:38;;;;;;;11.75;6.82;;;24.30;1.00;;;;;;20434056;28;20035;-41
2023/06/21 12:31:03;;;;;;;8.38;5.50;;;24.80;1.00;;;;;;20430114;28;20423;-41
2023/06/21 12:41:26;;;;;;;12.95;6.78;;;25.20;1.00;;;;;;20424501;29;20035;-41
2023/06/21 12:51:48;;;;;;;12.13;8.23;;;25.40;1.00;;;;;;20426413;28;20055;-41
2023/06/21 13:02:10;;;;;;;9.40;7.00;;;25.70;1.00;;;;;;20425003;28;20074;-41
2023/06/21 13:12:36;;;;;;;15.02;11.18;;;25.40;1.00;;;;;;20417919;28;20796;-41
2023/06/21 13:22:57;;;;;;;11.37;6.53;;;25.20;1.00;;;;;;20442732;28;20380;-41
2023/06/21 13:33:19;;;;;;;10.88;7.88;;;25.00;1.00;;;;;;20411317;28;20059;-41
2023/06/21 13:43:40;;;;;;;6.05;4.18;;;24.90;1.00;;;;;;20417008;28;20582;-41
2023/06/21 13:54:02;;;;;;;5.22;3.13;;;25.00;1.00;;;;;;20413036;28;20035;-41
2023/06/21 14:04:23;;;;;;;8.02;4.88;;;25.20;1.00;;;;;;20419307;28;20043;-41
2023/06/21 14:14:44;;;;;;;5.30;3.78;;;25.50;1.00;;;;;;20430712;28;20046;-41
2023/06/21 14:25:08;;;;;;;6.38;4.68;;;25.10;1.00;;;;;;20416166;28;20043;-41
2023/06/21 14:35:29;;;;;;;5.43;3.88;;;25.20;1.00;;;;;;20427029;28;20780;-41
2023/06/21 14:45:50;;;;;;;4.30;2.05;;;25.40;1.00;;;;;;20435469;28;20062;-41
2023/06/21 14:56:12;;;;;;;2.75;1.08;;;25.40;1.00;;;;;;20430573;28;20047;-41
2023/06/21 15:06:33;;;;;;;2.70;1.23;;;25.40;1.00;;;;;;20424452;28;20182;-41
2023/06/21 15:16:56;;;;;;;2.45;1.00;;;25.50;1.00;;;;;;20425794;29;20047;-41
2023/06/21 15:27:17;;;;;;;3.40;1.40;;;25.00;1.00;;;;;;20427671;28;20393;-41
2023/06/21 15:37:38;;;;;;;3.28;1.88;;;24.90;1.00;;;;;;20421130;29;20272;-41
2023/06/21 15:48:00;;;;;;;6.10;2.13;;;24.80;1.00;;;;;;20421850;28;20567;-41
2023/06/21 15:58:21;;;;;;;4.07;1.83;;;24.80;1.00;;;;;;20415580;28;20114;-43
2023/06/21 16:08:43;;;;;;;4.40;2.30;;;24.60;1.00;;;;;;20395315;28;20642;-41
2023/06/21 16:19:04;;;;;;;4.32;2.17;;;24.60;1.00;;;;;;20420638;28;20773;-41
2023/06/21 16:29:26;;;;;;;5.07;2.05;;;24.30;1.00;;;;;;20423297;28;21950;-41
2023/06/21 16:39:47;;;;;;;7.07;1.80;;;24.30;1.00;;;;;;20413413;28;20048;-41
2023/06/21 16:50:09;;;;;;;2.58;1.27;;;24.20;1.00;;;;;;20405767;28;20071;-41
2023/06/21 17:00:31;;;;;;;3.53;2.33;;;24.10;1.00;;;;;;20408212;29;20061;-42
2023/06/21 17:10:52;;;;;;;2.80;1.00;;;24.00;1.00;;;;;;20415926;28;20039;-42
2023/06/21 17:21:13;;;;;;;2.55;1.45;;;23.90;1.00;;;;;;20423904;28;20061;-42
2023/06/21 17:31:35;;;;;;;2.78;1.33;;;23.90;1.00;;;;;;20425603;29;20043;-42
2023/06/21 17:41:57;;;;;;;3.40;1.30;;;23.80;1.00;;;;;;20418300;28;20044;-42
2023/06/21 17:52:18;;;;;;;2.85;1.80;;;23.80;1.00;;;;;;20432859;28;20054;-42
2023/06/21 18:02:39;;;;;;;5.30;1.67;;;23.60;1.00;;;;;;20425555;28;20051;-42
2023/06/21 18:13:04;;;;;;;4.55;1.90;;;23.40;1.00;;;;;;20410064;28;20058;-42
2023/06/21 18:23:26;;;;;;;4.15;1.67;;;23.30;1.00;;;;;;20408609;28;20039;-42
2023/06/21 18:33:47;;;;;;;3.55;1.65;;;23.00;1.00;;;;;;20431032;28;20227;-42
2023/06/21 18:44:08;;;;;;;3.35;1.67;;;22.80;1.00;;;;;;20399459;29;1097039;-42
2023/06/21 18:54:30;;;;;;;2.63;1.45;;;22.70;1.00;;;;;;20440634;28;20035;-42
2023/06/21 19:04:52;;;;;;;2.90;1.50;;;22.40;1.00;;;;;;20441413;28;20058;-42
2023/06/21 19:15:14;;;;;;;2.25;1.40;;;22.20;1.00;;;;;;20440374;28;20035;-42
2023/06/21 19:25:35;;;;;;;2.60;1.65;;;22.10;1.00;;;;;;20441667;28;20063;-42
2023/06/21 19:35:57;;;;;;;3.42;1.90;;;21.90;1.00;;;;;;20442455;28;20688;-42
2023/06/21 19:46:18;;;;;;;3.75;2.03;;;21.80;1.00;;;;;;20412598;29;20055;-41
2023/06/21 19:56:43;;;;;;;2.67;1.73;;;21.50;1.00;;;;;;20426370;28;20057;-42
2023/06/21 20:07:04;;;;;;;3.17;1.60;;;21.30;1.00;;;;;;20417659;28;20046;-42
2023/06/21 20:17:26;;;;;;;3.63;1.80;;;21.10;1.00;;;;;;20421596;28;20031;-43
2023/06/21 20:27:47;;;;;;;3.72;1.83;;;20.80;1.00;;;;;;20422661;28;20059;-43
2023/06/21 20:38:09;;;;;;;3.75;1.85;;;20.60;1.00;;;;;;20425308;28;20491;-42
2023/06/21 20:48:32;;;;;;;3.88;1.88;;;20.40;1.00;;;;;;20426927;28;20091;-42
2023/06/21 20:58:54;;;;;;;3.13;1.80;;;20.20;1.00;;;;;;20418118;28;20128;-41
2023/06/21 21:09:15;;;;;;;3.13;1.70;;;20.00;1.00;;;;;;20415160;28;20039;-42
2023/06/21 21:19:36;;;;;;;2.63;1.60;;;19.90;1.00;;;;;;20420931;28;20454;-41
2023/06/21 21:29:58;;;;;;;3.08;2.03;;;19.70;1.00;;;;;;20427689;28;20272;-42
2023/06/21 21:40:19;;;;;;;4.20;1.90;;;19.50;1.00;;;;;;20425761;28;20066;-42
2023/06/21 21:50:40;;;;;;;4.05;1.90;;;19.40;1.00;;;;;;20426067;28;20051;-43
2023/06/21 22:01:02;;;;;;;4.57;2.05;;;19.40;1.00;;;;;;20422291;28;20048;-42
2023/06/21 22:11:24;;;;;;;4.05;2.63;;;19.50;1.00;;;;;;20419727;28;20078;-42
2023/06/21 22:21:52;;;;;;;3.88;2.55;;;19.50;1.00;;;;;;20423725;28;20038;-42
2023/06/21 22:32:13;;;;;;;5.23;2.80;;;19.30;1.00;;;;;;20423323;28;20043;-42
2023/06/21 22:42:35;;;;;;;6.88;3.17;;;19.30;1.00;;;;;;20428652;29;20523;-42
2023/06/21 22:52:59;;;;;;;5.60;3.53;;;19.20;1.00;;;;;;20436431;28;20251;-43
2023/06/21 23:03:25;;;;;;;4.88;3.30;;;19.10;1.00;;;;;;20432956;28;20562;-42
2023/06/21 23:13:47;;;;;;;5.43;3.63;;;19.00;1.00;;;;;;20431968;29;20055;-42
2023/06/21 23:24:08;;;;;;;5.13;3.40;;;18.80;1.00;;;;;;20429995;28;20719;-41
2023/06/21 23:34:34;;;;;;;7.93;3.80;;;18.80;1.00;;;;;;20426039;28;20066;-42
2023/06/21 23:44:56;;;;;;;5.15;3.78;;;18.70;1.70;;;;;;20425272;28;20063;-42
2023/06/21 23:55:17;;;;;;;5.40;3.97;;;18.50;3.50;;;;;;20426229;28;20106;-41
